createdAt,value
2023-05-15T00:01:29.499Z,99993.72
2023-05-15T00:03:56.718Z,99986.25
2023-05-15T00:06:23.931Z,99986.25
2023-05-15T00:08:51.073Z,99983.41
2023-05-15T00:11:18.626Z,99983.56
2023-05-15T00:13:45.697Z,99984.78
2023-05-15T00:16:12.810Z,99981.28
2023-05-15T00:18:39.776Z,99986.84
2023-05-15T00:21:06.957Z,99983.34
2023-05-15T00:23:34.080Z,99989.75
2023-05-15T00:26:01.113Z,99988.28
2023-05-15T00:28:28.287Z,99986.41
2023-05-15T00:30:56.710Z,99987.25
2023-05-15T00:33:23.919Z,99993.88
2023-05-15T00:35:51.334Z,99992.59
2023-05-15T00:38:18.412Z,100003.56
2023-05-15T00:40:46.369Z,100002.91
2023-05-15T00:43:13.857Z,99999.59
2023-05-15T00:45:42.496Z,99994.22
2023-05-15T00:48:12.456Z,99991.94
2023-05-15T00:50:41.654Z,99987.72
2023-05-15T00:53:08.824Z,99997.06
2023-05-15T00:55:36.110Z,99994.72
2023-05-15T00:58:05.681Z,99995.38
2023-05-15T01:00:34.912Z,99991.81
2023-05-15T01:03:02.254Z,100002.53
2023-05-15T01:05:30.345Z,99996.75
2023-05-15T01:08:07.173Z,100005.81
2023-05-15T01:10:38.476Z,99992.75
2023-05-15T01:13:07.478Z,99995.66
2023-05-15T01:15:34.484Z,100000.38
2023-05-15T01:18:01.773Z,100000.00
2023-05-15T01:20:29.004Z,99994.44
2023-05-15T01:23:30.716Z,99990.94
2023-05-15T01:26:17.414Z,99992.78
2023-05-15T01:28:49.348Z,99986.97
2023-05-15T01:31:22.578Z,99988.59
2023-05-15T01:33:55.528Z,99988.63
2023-05-15T01:36:29.452Z,99995.03
2023-05-15T01:38:58.198Z,99992.34
2023-05-15T01:41:43.827Z,99991.94
2023-05-15T01:44:27.542Z,99999.59
2023-05-15T01:47:04.367Z,100006.91
2023-05-15T01:49:32.386Z,100001.28
2023-05-15T01:52:21.002Z,100001.06
2023-05-15T01:54:48.793Z,100013.91
2023-05-15T01:57:16.559Z,100013.16
2023-05-15T01:59:47.536Z,100014.22
2023-05-15T02:02:15.730Z,100017.72
2023-05-15T02:04:44.136Z,100026.47
2023-05-15T02:07:14.103Z,100020.31
2023-05-15T02:09:41.667Z,100016.47
2023-05-15T02:12:12.960Z,100022.91
2023-05-15T02:14:41.397Z,100017.13
2023-05-15T02:17:19.149Z,100019.25
2023-05-15T02:19:47.253Z,100020.13
2023-05-15T02:22:14.314Z,100024.03
2023-05-15T02:24:41.551Z,100017.03
2023-05-15T02:27:33.814Z,100022.69
2023-05-15T02:30:23.799Z,100019.38
2023-05-15T02:33:07.959Z,100016.91
2023-05-15T02:35:52.650Z,100022.94
2023-05-15T02:38:26.481Z,100024.41
2023-05-15T02:40:56.104Z,100014.88
2023-05-15T02:43:23.163Z,100019.25
2023-05-15T02:45:53.532Z,100024.91
2023-05-15T02:48:20.723Z,100013.56
2023-05-15T02:50:50.891Z,100022.94
2023-05-15T02:53:17.847Z,100024.81
2023-05-15T02:55:45.257Z,100029.97
2023-05-15T02:58:12.353Z,100023.41
2023-05-15T03:00:39.397Z,100023.22
2023-05-15T03:03:07.180Z,100026.97
2023-05-15T03:05:34.293Z,100030.91
2023-05-15T03:08:01.253Z,100028.47
2023-05-15T03:10:31.015Z,100033.88
2023-05-15T03:13:00.854Z,100021.25
2023-05-15T03:15:28.170Z,100034.69
2023-05-15T03:17:55.311Z,100032.19
2023-05-15T03:20:22.349Z,100035.94
2023-05-15T03:22:49.391Z,100030.94
2023-05-15T03:25:16.669Z,100031.34
2023-05-15T03:27:46.876Z,100043.72
2023-05-15T03:30:16.818Z,100039.75
2023-05-15T03:32:44.063Z,100051.09
2023-05-15T03:35:11.149Z,100045.66
2023-05-15T03:37:38.345Z,100045.16
2023-05-15T03:40:08.876Z,100039.47
2023-05-15T03:42:38.493Z,100046.66
2023-05-15T03:45:06.215Z,100038.75
2023-05-15T03:47:33.233Z,100048.47
2023-05-15T03:50:00.300Z,100042.84
2023-05-15T03:52:27.276Z,100045.06
2023-05-15T03:54:57.260Z,100037.72
2023-05-15T03:57:28.306Z,100045.72
2023-05-15T03:59:55.261Z,100042.13
2023-05-15T04:02:22.415Z,100047.84
2023-05-15T04:04:49.606Z,100047.97
2023-05-15T04:07:22.002Z,100040.47
2023-05-15T04:09:49.125Z,100053.19
2023-05-15T04:12:16.255Z,100056.84
2023-05-15T04:14:43.327Z,100049.56
2023-05-15T04:17:10.404Z,100049.50
2023-05-15T04:19:41.128Z,100050.28
2023-05-15T04:22:09.497Z,100054.97
2023-05-15T04:24:37.378Z,100056.81
2023-05-15T04:27:04.673Z,100044.72
2023-05-15T04:29:31.750Z,100061.22
2023-05-15T04:32:01.692Z,100060.31
2023-05-15T04:34:29.640Z,100052.00
2023-05-15T04:37:00.316Z,100055.19
2023-05-15T04:39:27.266Z,100049.97
2023-05-15T04:41:56.856Z,100039.53
2023-05-15T04:44:23.829Z,100051.25
2023-05-15T04:46:56.335Z,100054.34
2023-05-15T04:49:25.180Z,100056.47
2023-05-15T04:51:52.488Z,100057.00
2023-05-15T04:54:19.799Z,100047.31
2023-05-15T04:56:49.870Z,100062.31
2023-05-15T04:59:25.875Z,100057.53
2023-05-15T05:01:54.894Z,100059.75
2023-05-15T05:04:23.428Z,100056.25
2023-05-15T05:06:53.044Z,100060.84
2023-05-15T05:09:39.561Z,100047.81
2023-05-15T05:12:13.498Z,100057.22
2023-05-15T05:14:44.677Z,100051.56
2023-05-15T05:17:16.392Z,100050.75
2023-05-15T05:19:46.612Z,100041.22
2023-05-15T05:22:24.128Z,100047.31
2023-05-15T05:24:54.097Z,100059.00
2023-05-15T05:27:21.941Z,100051.44
2023-05-15T05:29:49.109Z,100041.44
2023-05-15T05:32:16.171Z,100051.94
2023-05-15T05:34:43.188Z,100038.38
2023-05-15T05:37:15.403Z,100052.75
2023-05-15T05:39:42.646Z,100047.56
2023-05-15T05:42:09.678Z,100051.31
2023-05-15T05:44:36.710Z,100049.66
2023-05-15T05:47:04.760Z,100045.25
2023-05-15T05:49:31.889Z,100049.47
2023-05-15T05:52:07.563Z,100048.25
2023-05-15T05:54:34.736Z,100040.06
2023-05-15T05:57:01.886Z,100023.78
2023-05-15T05:59:32.246Z,100021.06
2023-05-15T06:01:59.727Z,100026.44
2023-05-15T06:04:27.223Z,100034.88
2023-05-15T06:06:54.368Z,100038.13
2023-05-15T06:09:21.485Z,100022.53
2023-05-15T06:11:49.579Z,100033.38
2023-05-15T06:14:16.601Z,100035.84
2023-05-15T06:16:49.683Z,100048.75
2023-05-15T06:19:18.525Z,100028.16
2023-05-15T06:21:54.546Z,100037.88
2023-05-15T06:24:27.121Z,100039.03
2023-05-15T06:26:54.417Z,100036.56
2023-05-15T06:29:21.545Z,100028.59
2023-05-15T06:31:48.871Z,100029.28
2023-05-15T06:34:16.330Z,100018.53
2023-05-15T06:36:45.729Z,100027.75
2023-05-15T06:39:15.296Z,100036.72
2023-05-15T06:41:51.492Z,100035.66
2023-05-15T06:44:19.328Z,100037.19
2023-05-15T06:46:49.450Z,100028.97
2023-05-15T06:49:16.832Z,100028.00
2023-05-15T06:51:43.878Z,100019.25
2023-05-15T06:54:11.136Z,100026.25
2023-05-15T06:56:43.360Z,100022.91
2023-05-15T06:59:10.568Z,100026.78
2023-05-15T07:01:38.525Z,100032.47
2023-05-15T07:04:05.684Z,100022.16
2023-05-15T07:06:34.133Z,100032.13
2023-05-15T07:09:09.300Z,100018.28
2023-05-15T07:11:39.061Z,100022.63
2023-05-15T07:14:06.881Z,100023.47
2023-05-15T07:16:34.630Z,100025.22
2023-05-15T07:19:04.687Z,100018.25
2023-05-15T07:21:36.737Z,100027.28
2023-05-15T07:24:06.737Z,100026.66
2023-05-15T07:26:50.277Z,100025.34
2023-05-15T07:29:25.057Z,100017.41
2023-05-15T07:31:55.639Z,100029.84
2023-05-15T07:34:24.908Z,100021.81
2023-05-15T07:36:52.052Z,100026.53
2023-05-15T07:39:24.530Z,100007.72
2023-05-15T07:41:51.844Z,100014.84
2023-05-15T07:44:24.444Z,100019.47
2023-05-15T07:46:52.108Z,99982.78
2023-05-15T07:49:19.123Z,100002.47
2023-05-15T07:51:46.914Z,99981.88
2023-05-15T07:54:14.275Z,99987.59
2023-05-15T07:56:43.620Z,99989.56
2023-05-15T07:59:13.019Z,99982.44
2023-05-15T08:01:45.255Z,99982.66
2023-05-15T08:04:12.520Z,99992.13
2023-05-15T08:06:47.051Z,99992.31
2023-05-15T08:09:23.865Z,100007.59
2023-05-15T08:11:53.899Z,100012.28
2023-05-15T08:14:27.206Z,100003.09
2023-05-15T08:16:54.586Z,99988.69
2023-05-15T08:19:22.933Z,100009.25
2023-05-15T08:21:51.384Z,99981.25
2023-05-15T08:24:18.431Z,99978.84
2023-05-15T08:26:48.708Z,99986.88
2023-05-15T08:29:16.914Z,99985.53
2023-05-15T08:31:47.347Z,99989.94
2023-05-15T08:34:14.717Z,99974.25
2023-05-15T08:36:42.207Z,99972.41
2023-05-15T08:39:09.609Z,99985.81
2023-05-15T08:42:08.838Z,99990.84
2023-05-15T08:44:36.808Z,99990.25
2023-05-15T08:47:09.320Z,99981.00
2023-05-15T08:50:05.054Z,99979.38
2023-05-15T08:52:35.228Z,99969.34
2023-05-15T08:55:03.964Z,99975.41
2023-05-15T08:57:34.021Z,99981.03
2023-05-15T09:00:01.451Z,99978.22
2023-05-15T09:02:34.161Z,99954.47
2023-05-15T09:05:03.089Z,99949.91
2023-05-15T09:07:32.356Z,99962.53
2023-05-15T09:10:00.303Z,99959.88
2023-05-15T09:12:31.621Z,99948.94
2023-05-15T09:15:17.429Z,99936.13
2023-05-15T09:18:13.342Z,99944.88
2023-05-15T09:20:42.877Z,99942.09
2023-05-15T09:23:26.698Z,99942.50
2023-05-15T09:26:01.721Z,99939.66
2023-05-15T09:28:35.577Z,99924.03
2023-05-15T09:31:05.208Z,99923.41
2023-05-15T09:33:38.378Z,99927.38
2023-05-15T09:36:10.463Z,99920.09
2023-05-15T09:38:43.552Z,99918.72
2023-05-15T09:41:11.593Z,99919.25
2023-05-15T09:43:41.573Z,99921.69
2023-05-15T09:46:09.757Z,99915.97
2023-05-15T09:48:37.573Z,99934.53
2023-05-15T09:51:15.465Z,99913.19
2023-05-15T09:53:49.274Z,99925.78
2023-05-15T09:56:17.664Z,99916.81
2023-05-15T09:58:57.969Z,99912.78
2023-05-15T10:01:29.621Z,99913.63
2023-05-15T10:04:09.090Z,99902.84
2023-05-15T10:06:38.421Z,99894.94
2023-05-15T10:09:06.568Z,99915.44
2023-05-15T10:11:36.356Z,99904.41
2023-05-15T10:14:26.334Z,99914.16
2023-05-15T10:16:58.075Z,99904.47
2023-05-15T10:19:27.742Z,99893.03
2023-05-15T10:21:56.204Z,99897.19
2023-05-15T10:24:30.510Z,99901.72
2023-05-15T10:26:59.023Z,99881.75
2023-05-15T10:29:29.986Z,99896.59
2023-05-15T10:32:02.676Z,99899.84
2023-05-15T10:34:30.554Z,99900.56
2023-05-15T10:36:59.473Z,99884.19
2023-05-15T10:39:27.934Z,99903.66
2023-05-15T10:41:57.405Z,99886.25
2023-05-15T10:44:24.413Z,99880.03
2023-05-15T10:46:51.959Z,99893.75
2023-05-15T10:49:19.059Z,99886.69
2023-05-15T10:51:50.011Z,99893.59
2023-05-15T10:54:19.645Z,99875.06
2023-05-15T10:56:47.141Z,99875.78
2023-05-15T10:59:14.113Z,99869.28
2023-05-15T11:01:42.702Z,99882.75
2023-05-15T11:04:20.977Z,99878.16
2023-05-15T11:06:49.731Z,99857.78
2023-05-15T11:10:02.045Z,99875.47
2023-05-15T11:13:17.660Z,99870.28
2023-05-15T11:15:47.798Z,99878.56
2023-05-15T11:18:17.592Z,99850.50
2023-05-15T11:20:58.355Z,99870.63
2023-05-15T11:23:33.440Z,99856.50
2023-05-15T11:26:08.392Z,99847.41
2023-05-15T11:28:44.523Z,99861.06
2023-05-15T11:31:17.949Z,99865.69
2023-05-15T11:33:56.435Z,99855.47
2023-05-15T11:36:25.825Z,99856.16
2023-05-15T11:38:54.460Z,99859.34
2023-05-15T11:41:28.848Z,99854.13
2023-05-15T11:43:58.360Z,99853.59
2023-05-15T11:46:28.014Z,99842.88
2023-05-15T11:49:06.002Z,99855.09
2023-05-15T11:51:43.730Z,99826.91
2023-05-15T11:54:16.654Z,99830.22
2023-05-15T11:56:46.057Z,99849.22
2023-05-15T11:59:16.406Z,99839.34
2023-05-15T12:01:50.338Z,99830.53
2023-05-15T12:04:24.185Z,99836.34
2023-05-15T12:06:53.637Z,99840.38
2023-05-15T12:09:27.787Z,99823.94
2023-05-15T12:11:59.971Z,99830.50
2023-05-15T12:14:33.740Z,99811.13
2023-05-15T12:17:09.140Z,99821.44
2023-05-15T12:19:37.429Z,99819.06
2023-05-15T12:22:08.582Z,99821.56
2023-05-15T12:24:39.801Z,99812.25
2023-05-15T12:27:08.378Z,99823.00
2023-05-15T12:29:35.540Z,99820.53
2023-05-15T12:32:04.094Z,99812.50
2023-05-15T12:34:31.677Z,99794.03
2023-05-15T12:37:00.155Z,99814.94
2023-05-15T12:39:27.390Z,99804.63
2023-05-15T12:41:54.544Z,99806.25
2023-05-15T12:44:21.668Z,99802.75
2023-05-15T12:46:48.808Z,99781.06
2023-05-15T12:49:22.128Z,99800.84
2023-05-15T12:51:49.700Z,99788.72
2023-05-15T12:54:20.699Z,99797.25
2023-05-15T12:56:48.573Z,99790.06
2023-05-15T12:59:16.026Z,99790.44
2023-05-15T13:02:12.489Z,99791.59
2023-05-15T13:04:40.324Z,99771.19
2023-05-15T13:07:07.845Z,99764.88
2023-05-15T13:09:35.576Z,99774.41
2023-05-15T13:12:04.174Z,99774.50
2023-05-15T13:14:34.652Z,99770.34
2023-05-15T13:17:04.828Z,99778.84
2023-05-15T13:19:34.230Z,99755.22
2023-05-15T13:22:01.279Z,99763.84
2023-05-15T13:24:28.553Z,99758.81
2023-05-15T13:26:56.106Z,99746.66
2023-05-15T13:29:23.534Z,99737.69
2023-05-15T13:31:53.604Z,99764.66
2023-05-15T13:34:27.912Z,99756.22
2023-05-15T13:36:55.083Z,99756.56
2023-05-15T13:39:22.295Z,99752.34
2023-05-15T13:41:49.493Z,99762.03
2023-05-15T13:44:19.513Z,99758.00
2023-05-15T13:46:46.844Z,99756.84
2023-05-15T13:49:14.520Z,99749.44
2023-05-15T13:51:41.576Z,99755.09
2023-05-15T13:54:08.643Z,99756.06
2023-05-15T13:56:39.034Z,99746.72
2023-05-15T13:59:06.276Z,99742.91
2023-05-15T14:01:33.447Z,99744.78
2023-05-15T14:04:00.606Z,99748.47
2023-05-15T14:06:27.650Z,99742.44
2023-05-15T14:08:54.741Z,99751.94
2023-05-15T14:11:22.962Z,99739.41
2023-05-15T14:14:10.111Z,99732.31
2023-05-15T14:16:40.353Z,99736.25
2023-05-15T14:19:08.796Z,99729.47
2023-05-15T14:21:36.160Z,99737.81
2023-05-15T14:24:05.041Z,99728.72
2023-05-15T14:26:32.427Z,99735.13
2023-05-15T14:28:59.669Z,99732.16
2023-05-15T14:31:27.147Z,99744.31
2023-05-15T14:33:54.269Z,99744.25
2023-05-15T14:36:23.354Z,99730.72
2023-05-15T14:38:52.537Z,99743.56
2023-05-15T14:41:19.705Z,99744.16
2023-05-15T14:43:47.607Z,99720.44
2023-05-15T14:46:14.776Z,99724.22
2023-05-15T14:48:42.074Z,99718.88
2023-05-15T14:51:09.283Z,99728.97
2023-05-15T14:53:38.898Z,99713.34
2023-05-15T14:56:06.286Z,99729.88
2023-05-15T14:58:33.508Z,99712.94
2023-05-15T15:01:00.774Z,99728.13
2023-05-15T15:03:29.486Z,99717.88
2023-05-15T15:06:00.646Z,99725.91
2023-05-15T15:08:28.248Z,99726.84
2023-05-15T15:10:55.589Z,99730.34
2023-05-15T15:13:33.737Z,99722.59
2023-05-15T15:16:13.662Z,99721.47
2023-05-15T15:18:41.321Z,99705.78
2023-05-15T15:21:09.405Z,99702.69
2023-05-15T15:23:36.619Z,99725.53
2023-05-15T15:26:03.729Z,99724.34
2023-05-15T15:28:33.929Z,99707.28
2023-05-15T15:31:00.998Z,99699.84
2023-05-15T15:33:28.198Z,99715.19
2023-05-15T15:36:02.941Z,99713.13
2023-05-15T15:38:38.758Z,99711.13
2023-05-15T15:42:31.919Z,99699.81
2023-05-15T15:45:28.365Z,99693.97
2023-05-15T15:47:55.744Z,99699.13
2023-05-15T15:50:22.828Z,99690.34
2023-05-15T15:52:50.082Z,99707.94
2023-05-15T15:55:18.519Z,99700.09
2023-05-15T15:57:45.580Z,99698.78
2023-05-15T16:00:17.528Z,99701.81
2023-05-15T16:02:44.887Z,99704.63
2023-05-15T16:05:12.377Z,99712.09
2023-05-15T16:07:39.703Z,99693.22
2023-05-15T16:10:12.954Z,99710.75
2023-05-15T16:12:45.086Z,99714.38
2023-05-15T16:15:23.322Z,99713.50
2023-05-15T16:17:55.618Z,99716.34
2023-05-15T16:20:27.337Z,99709.56
2023-05-15T16:22:54.878Z,99712.25
2023-05-15T16:25:22.013Z,99714.59
2023-05-15T16:27:49.481Z,99690.78
2023-05-15T16:30:44.343Z,99702.09
2023-05-15T16:33:17.694Z,99713.22
2023-05-15T16:35:45.769Z,99711.94
2023-05-15T16:38:13.477Z,99710.47
2023-05-15T16:40:40.644Z,99724.31
2023-05-15T16:43:11.607Z,99715.16
2023-05-15T16:45:39.002Z,99719.34
2023-05-15T16:48:06.340Z,99698.94
2023-05-15T16:50:36.228Z,99715.59
2023-05-15T16:53:05.080Z,99718.06
2023-05-15T16:55:32.741Z,99718.94
2023-05-15T16:58:05.852Z,99703.63
2023-05-15T17:00:33.333Z,99719.19
2023-05-15T17:03:03.872Z,99736.16
2023-05-15T17:05:31.713Z,99712.63
2023-05-15T17:07:59.224Z,99721.94
2023-05-15T17:10:26.955Z,99730.13
2023-05-15T17:12:54.629Z,99721.66
2023-05-15T17:15:28.118Z,99713.19
2023-05-15T17:17:56.506Z,99724.13
2023-05-15T17:20:23.971Z,99714.28
2023-05-15T17:22:55.097Z,99730.59
2023-05-15T17:25:25.279Z,99717.78
2023-05-15T17:27:52.795Z,99730.31
2023-05-15T17:30:22.395Z,99722.34
2023-05-15T17:32:49.961Z,99731.66
2023-05-15T17:35:17.626Z,99721.72
2023-05-15T17:37:44.756Z,99727.44
2023-05-15T17:40:12.121Z,99735.31
2023-05-15T17:42:42.278Z,99723.84
2023-05-15T17:45:09.834Z,99739.66
2023-05-15T17:47:37.040Z,99734.44
2023-05-15T17:50:04.271Z,99744.78
2023-05-15T17:52:32.525Z,99724.78
2023-05-15T17:54:59.875Z,99744.34
2023-05-15T17:57:32.318Z,99747.25
2023-05-15T18:00:05.817Z,99751.56
2023-05-15T18:02:39.707Z,99754.47
2023-05-15T18:05:07.936Z,99756.06
2023-05-15T18:07:35.114Z,99752.94
2023-05-15T18:10:02.258Z,99758.03
2023-05-15T18:12:35.431Z,99761.19
2023-05-15T18:15:02.599Z,99739.97
2023-05-15T18:17:33.218Z,99761.25
2023-05-15T18:20:01.557Z,99762.81
2023-05-15T18:22:29.783Z,99758.03
2023-05-15T18:24:57.188Z,99755.88
2023-05-15T18:27:24.372Z,99747.50
2023-05-15T18:29:51.991Z,99763.28
2023-05-15T18:32:26.717Z,99743.22
2023-05-15T18:34:54.049Z,99769.53
2023-05-15T18:37:24.339Z,99768.88
2023-05-15T18:39:57.149Z,99748.97
2023-05-15T18:42:25.491Z,99762.19
2023-05-15T18:44:53.299Z,99769.59
2023-05-15T18:47:23.442Z,99768.72
2023-05-15T18:49:51.381Z,99768.13
2023-05-15T18:52:21.603Z,99766.19
2023-05-15T18:54:49.268Z,99764.53
2023-05-15T18:57:18.597Z,99763.63
2023-05-15T18:59:45.764Z,99766.63
2023-05-15T19:02:13.454Z,99762.88
2023-05-15T19:04:51.895Z,99752.22
2023-05-15T19:07:52.918Z,99769.31
2023-05-15T19:10:22.169Z,99769.78
2023-05-15T19:12:57.502Z,99781.59
2023-05-15T19:15:27.970Z,99765.13
2023-05-15T19:17:55.304Z,99762.97
2023-05-15T19:20:22.377Z,99765.03
2023-05-15T19:22:49.612Z,99771.97
2023-05-15T19:25:16.669Z,99777.53
2023-05-15T19:27:43.614Z,99776.72
2023-05-15T19:30:11.066Z,99781.22
2023-05-15T19:32:39.472Z,99780.31
2023-05-15T19:35:06.686Z,99785.63
2023-05-15T19:37:33.883Z,99789.88
2023-05-15T19:40:00.900Z,99783.16
2023-05-15T19:42:30.816Z,99789.06
2023-05-15T19:44:57.899Z,99782.84
2023-05-15T19:47:27.699Z,99772.97
2023-05-15T19:49:54.923Z,99787.22
2023-05-15T19:52:21.964Z,99785.94
2023-05-15T19:54:49.840Z,99782.19
2023-05-15T19:57:17.074Z,99791.94
2023-05-15T19:59:44.308Z,99773.94
2023-05-15T20:02:14.742Z,99772.53
2023-05-15T20:04:44.163Z,99760.44
2023-05-15T20:07:12.323Z,99793.97
2023-05-15T20:09:41.965Z,99774.56
2023-05-15T20:12:11.722Z,99800.78
2023-05-15T20:14:41.307Z,99799.50
2023-05-15T20:17:08.467Z,99796.41
2023-05-15T20:19:38.383Z,99789.38
2023-05-15T20:22:05.533Z,99793.97
2023-05-15T20:24:32.654Z,99787.84
2023-05-15T20:26:59.905Z,99790.03
2023-05-15T20:29:26.998Z,99790.50
2023-05-15T20:31:54.429Z,99780.25
2023-05-15T20:34:21.971Z,99781.53
2023-05-15T20:36:52.943Z,99772.69
2023-05-15T20:39:20.573Z,99776.13
2023-05-15T20:41:50.716Z,99782.34
2023-05-15T20:44:17.718Z,99792.91
2023-05-15T20:46:44.984Z,99793.97
2023-05-15T20:49:14.177Z,99796.78
2023-05-15T20:51:41.941Z,99789.59
2023-05-15T20:54:08.903Z,99780.53
2023-05-15T20:56:38.790Z,99799.47
2023-05-15T20:59:06.061Z,99797.66
2023-05-15T21:01:37.622Z,99800.22
2023-05-15T21:04:04.920Z,99806.63
2023-05-15T21:06:32.968Z,99802.06
2023-05-15T21:09:00.170Z,99805.22
2023-05-15T21:11:29.367Z,99798.50
2023-05-15T21:13:56.784Z,99803.28
2023-05-15T21:16:26.651Z,99796.53
2023-05-15T21:18:53.853Z,99807.00
2023-05-15T21:21:24.231Z,99809.31
2023-05-15T21:24:00.771Z,99808.19
2023-05-15T21:26:28.368Z,99805.56
2023-05-15T21:28:57.371Z,99804.44
2023-05-15T21:31:28.066Z,99805.50
2023-05-15T21:33:55.177Z,99809.91
2023-05-15T21:36:22.547Z,99802.41
2023-05-15T21:38:49.586Z,99817.41
2023-05-15T21:41:16.597Z,99816.00
2023-05-15T21:43:43.627Z,99812.97
2023-05-15T21:46:10.802Z,99821.44
2023-05-15T21:48:38.054Z,99822.66
2023-05-15T21:51:25.257Z,99832.94
2023-05-15T21:53:52.304Z,99818.06
2023-05-15T21:56:24.822Z,99824.75
2023-05-15T21:58:53.248Z,99826.84
2023-05-15T22:01:20.606Z,99832.03
2023-05-15T22:03:47.817Z,99832.34
2023-05-15T22:06:15.397Z,99827.53
2023-05-15T22:08:42.513Z,99830.00
2023-05-15T22:11:09.847Z,99831.06
2023-05-15T22:13:36.861Z,99837.13
2023-05-15T22:16:06.489Z,99828.47
2023-05-15T22:18:36.194Z,99830.34
2023-05-15T22:21:03.531Z,99828.75
2023-05-15T22:23:30.653Z,99831.53
2023-05-15T22:25:57.641Z,99828.66
2023-05-15T22:28:24.825Z,99824.09
2023-05-15T22:30:51.777Z,99816.66
2023-05-15T22:33:18.935Z,99818.09
2023-05-15T22:35:47.297Z,99828.72
2023-05-15T22:38:14.465Z,99820.91
2023-05-15T22:40:41.807Z,99820.13
2023-05-15T22:43:08.879Z,99806.78
2023-05-15T22:45:36.095Z,99820.81
2023-05-15T22:48:03.868Z,99826.66
2023-05-15T22:50:34.036Z,99828.38
2023-05-15T22:53:01.086Z,99828.59
2023-05-15T22:55:28.637Z,99826.31
2023-05-15T22:57:55.763Z,99822.19
2023-05-15T23:00:28.489Z,99819.31
2023-05-15T23:02:56.171Z,99824.06
2023-05-15T23:05:25.112Z,99826.41
2023-05-15T23:08:48.269Z,99816.03
2023-05-15T23:11:15.325Z,99810.75
2023-05-15T23:13:42.294Z,99815.47
2023-05-15T23:16:10.122Z,99812.38
2023-05-15T23:18:37.346Z,99819.63
2023-05-15T23:21:04.978Z,99814.41
2023-05-15T23:23:34.526Z,99818.00
2023-05-15T23:26:01.472Z,99820.72
2023-05-15T23:28:28.609Z,99816.16
2023-05-15T23:30:56.301Z,99821.59
2023-05-15T23:33:23.368Z,99826.19
2023-05-15T23:35:52.718Z,99821.19
2023-05-15T23:38:25.145Z,99824.94
2023-05-15T23:40:53.064Z,99819.56
2023-05-15T23:43:20.961Z,99816.03
2023-05-15T23:45:47.954Z,99817.31
2023-05-15T23:48:15.151Z,99803.84
2023-05-15T23:50:42.320Z,99821.28
2023-05-15T23:53:09.974Z,99820.66
2023-05-15T23:55:36.956Z,99821.09
2023-05-15T23:58:04.137Z,99822.59
